createdAt,value
2023-05-10T00:00:48.305Z,20
2023-05-10T00:02:50.226Z,20.8
2023-05-10T00:04:52.065Z,21.5
2023-05-10T00:06:53.941Z,21.2
2023-05-10T00:08:55.813Z,20
2023-05-10T00:10:57.666Z,23.2
2023-05-10T00:13:02.768Z,23.5
2023-05-10T00:15:04.603Z,26.8
2023-05-10T00:17:06.479Z,30
2023-05-10T00:18:09.034Z,32.6
2023-05-10T00:34:27.696Z,33.9
2023-05-10T00:50:45.912Z,48.5
2023-05-10T00:52:47.764Z,37
2023-05-10T00:54:52.795Z,42.6
2023-05-10T00:56:54.652Z,33.1
2023-05-10T00:58:56.561Z,44.1
2023-05-10T01:00:58.473Z,43.1
2023-05-10T01:03:00.386Z,55
2023-05-10T01:05:02.254Z,56.9
2023-05-10T01:07:04.096Z,50.3
2023-05-10T01:09:09.197Z,54.9
2023-05-10T01:11:11.115Z,57.3
2023-05-10T01:13:13.013Z,52.1
2023-05-10T01:15:41.676Z,59.5
2023-05-10T01:17:43.574Z,56.3
2023-05-10T01:19:45.423Z,60.7
2023-05-10T01:21:50.422Z,65.5
2023-05-10T01:23:52.328Z,61.5
2023-05-10T01:27:56.137Z,62.7
2023-05-10T01:30:13.632Z,64.4
2023-05-10T01:31:59.973Z,70.7
2023-05-10T01:34:01.862Z,58.1
2023-05-10T01:40:10.623Z,57.4
2023-05-10T01:42:12.487Z,56.3
2023-05-10T01:44:14.395Z,73.3
2023-05-10T01:46:16.284Z,64
2023-05-10T01:48:18.118Z,64.2
2023-05-10T01:52:25.025Z,55.4
2023-05-10T01:54:26.954Z,72.8
2023-05-10T01:56:28.827Z,70.2
2023-05-10T01:58:30.674Z,66.5
2023-05-10T02:00:32.625Z,79.5
2023-05-10T02:02:34.527Z,79.6
2023-05-10T02:04:39.517Z,81.9
2023-05-10T02:06:41.374Z,80.7
2023-05-10T02:08:43.256Z,81.2
2023-05-10T02:17:56.586Z,84.7
2023-05-10T02:19:58.418Z,93.1
2023-05-10T02:22:00.291Z,93.6
2023-05-10T02:28:05.957Z,83
2023-05-10T02:36:16.589Z,97.8
2023-05-10T02:38:18.472Z,91.4
2023-05-10T02:40:20.370Z,94.3
2023-05-10T02:42:22.244Z,87.8
2023-05-10T02:44:24.146Z,121.6
2023-05-10T02:50:32.956Z,138
2023-05-10T02:52:34.821Z,108.9
2023-05-10T02:54:36.712Z,111.2
2023-05-10T02:56:38.709Z,104.7
2023-05-10T02:58:40.618Z,119.8
2023-05-10T03:00:45.722Z,113.9
2023-05-10T03:05:52.068Z,110.4
2023-05-10T03:07:53.972Z,109
2023-05-10T03:09:55.852Z,100.8
2023-05-10T03:11:57.746Z,110.6
2023-05-10T03:14:02.894Z,117.8
2023-05-10T03:18:06.727Z,125.9
2023-05-10T03:20:08.535Z,127.3
2023-05-10T03:22:10.405Z,128.4
2023-05-10T03:24:12.282Z,113.1
2023-05-10T03:26:14.171Z,119.1
2023-05-10T03:28:19.290Z,111.6
2023-05-10T03:30:21.189Z,124
2023-05-10T03:34:24.936Z,105.9
2023-05-10T03:36:26.830Z,120.6
2023-05-10T03:38:30.539Z,113.1
2023-05-10T03:44:37.608Z,94.4
2023-05-10T03:46:39.538Z,113.6
2023-05-10T03:50:43.338Z,112.5
2023-05-10T03:52:45.226Z,105.1
2023-05-10T03:54:47.098Z,115.5
2023-05-10T03:56:52.134Z,109.5
2023-05-10T03:58:54.011Z,92.6
2023-05-10T04:00:55.921Z,95
2023-05-10T04:10:09.174Z,94.9
2023-05-10T04:12:11.238Z,89.6
2023-05-10T04:14:12.963Z,94.1
2023-05-10T04:16:14.867Z,101.1
2023-05-10T04:18:16.710Z,88.8
2023-05-10T04:20:18.844Z,102.4
2023-05-10T04:22:20.470Z,76.4
2023-05-10T04:24:25.503Z,110.9
2023-05-10T04:26:27.505Z,90.2
2023-05-10T04:34:35.120Z,94.5
2023-05-10T04:36:37.026Z,92.7
2023-05-10T04:38:42.065Z,113.9
2023-05-10T04:40:43.951Z,82.8
2023-05-10T04:44:47.659Z,85.3
2023-05-10T04:46:49.575Z,90.5
2023-05-10T04:48:51.491Z,106.7
2023-05-10T04:50:53.435Z,87.4
2023-05-10T04:52:58.545Z,120.5
2023-05-10T04:55:00.416Z,98.8
2023-05-10T04:57:02.310Z,115.2
2023-05-10T04:59:30.894Z,117.9
2023-05-10T05:01:32.783Z,95.7
2023-05-10T05:03:34.751Z,105
2023-05-10T05:05:39.785Z,90.2
2023-05-10T05:07:41.675Z,115.5
2023-05-10T05:09:43.538Z,109.5
2023-05-10T05:11:45.413Z,111.4
2023-05-10T05:13:47.419Z,120.6
2023-05-10T05:15:49.331Z,129.2
2023-05-10T05:17:51.225Z,139.4
2023-05-10T05:19:57.838Z,128.3
2023-05-10T05:21:59.712Z,124.8
2023-05-10T05:24:01.616Z,136.5
2023-05-10T05:26:03.495Z,135.5
2023-05-10T05:28:05.449Z,139
2023-05-10T05:32:09.410Z,143.8
2023-05-10T05:34:14.241Z,140.9
2023-05-10T05:36:16.150Z,123
2023-05-10T05:38:18.011Z,128.8
2023-05-10T05:44:23.649Z,134.9
2023-05-10T05:46:25.597Z,144.9
2023-05-10T05:53:37.085Z,136.1
2023-05-10T05:55:39.033Z,142.1
2023-05-10T05:59:42.809Z,154.6
2023-05-10T06:01:47.852Z,133.7
2023-05-10T06:03:51.124Z,140.7
2023-05-10T06:05:51.572Z,126.3
2023-05-10T06:09:55.533Z,144
2023-05-10T06:11:57.523Z,127.2
2023-05-10T06:18:06.318Z,121.5
2023-05-10T06:20:08.155Z,129.7
2023-05-10T06:26:13.786Z,99.4
2023-05-10T06:30:20.672Z,107.5
2023-05-10T06:32:22.538Z,108.9
2023-05-10T06:34:24.451Z,115.3
2023-05-10T06:36:26.303Z,106.5
2023-05-10T06:38:28.301Z,102.2
2023-05-10T06:40:30.301Z,124.3
2023-05-10T06:42:32.169Z,95.4
2023-05-10T06:44:37.155Z,117.3
2023-05-10T06:46:39.060Z,146.2
2023-05-10T06:48:40.913Z,106.7
2023-05-10T06:55:49.003Z,114.1
2023-05-10T06:57:54.009Z,103.3
2023-05-10T06:59:55.897Z,112.6
2023-05-10T07:01:57.948Z,103.1
2023-05-10T07:06:01.635Z,102.8
2023-05-10T07:08:03.515Z,104.9
2023-05-10T07:10:05.421Z,97.5
2023-05-10T07:12:12.783Z,96
2023-05-10T07:14:12.390Z,110.7
2023-05-10T07:16:14.347Z,99.9
2023-05-10T07:18:16.224Z,105.1
2023-05-10T07:20:18.054Z,94.1
2023-05-10T07:22:19.937Z,90.5
2023-05-10T07:24:21.821Z,113.7
2023-05-10T07:26:26.820Z,95.2
2023-05-10T07:28:28.701Z,112.4
2023-05-10T07:30:30.636Z,92
2023-05-10T07:32:32.734Z,96.3
2023-05-10T07:34:34.354Z,86.8
2023-05-10T07:36:36.332Z,76.9
2023-05-10T07:38:40.815Z,93.2
2023-05-10T07:40:43.250Z,87.2
2023-05-10T07:42:45.099Z,96.8
2023-05-10T07:44:46.992Z,85
2023-05-10T07:45:49.571Z,84.5
2023-05-10T07:51:55.119Z,94.9
2023-05-10T07:54:00.122Z,68.9
2023-05-10T07:58:03.870Z,70.3
2023-05-10T08:00:05.745Z,67.5
2023-05-10T08:02:07.672Z,59.7
2023-05-10T08:04:09.529Z,57
2023-05-10T08:06:11.353Z,54
2023-05-10T08:08:16.366Z,52.3
2023-05-10T08:10:18.216Z,38.4
2023-05-10T08:12:20.119Z,36.6
2023-05-10T08:14:21.972Z,44.2
2023-05-10T08:16:23.948Z,37.5
2023-05-10T08:18:25.724Z,43.6
2023-05-10T08:20:27.543Z,37.1
2023-05-10T08:22:32.551Z,41.2
2023-05-10T08:24:34.423Z,41.3
2023-05-10T08:26:36.272Z,42.8
2023-05-10T08:28:38.143Z,37.4
2023-05-10T08:30:39.995Z,28.5
2023-05-10T08:32:41.899Z,46.7
2023-05-10T08:34:43.782Z,33.8
2023-05-10T08:36:48.754Z,40.6
2023-05-10T08:38:52.024Z,41.5
2023-05-10T08:40:52.459Z,29.2
2023-05-10T08:43:21.032Z,23.8
2023-05-10T08:45:22.964Z,27.7
2023-05-10T08:49:29.756Z,18.4
2023-05-10T08:59:39.092Z,27
2023-05-10T09:01:40.943Z,27.2
2023-05-10T09:05:47.810Z,34
2023-05-10T09:07:49.690Z,27.6
2023-05-10T09:11:53.405Z,27.3
2023-05-10T09:13:55.305Z,31.8
2023-05-10T09:16:00.372Z,33.3
2023-05-10T09:18:02.171Z,25
2023-05-10T09:22:05.868Z,19.9
2023-05-10T09:28:11.507Z,35
2023-05-10T09:30:13.366Z,29.4
2023-05-10T09:32:18.415Z,33.9
2023-05-10T09:34:20.318Z,45.7
2023-05-10T09:36:22.169Z,38.2
2023-05-10T09:37:24.702Z,29.2
2023-05-10T09:39:26.537Z,36.3
2023-05-10T09:41:28.420Z,30.4
2023-05-10T09:45:37.774Z,27.8
2023-05-10T09:47:37.236Z,29.4
2023-05-10T09:49:39.078Z,25.2
2023-05-10T09:53:42.815Z,23.1
2023-05-10T09:59:51.566Z,24.6
2023-05-10T10:01:53.471Z,16.6
2023-05-10T10:03:55.296Z,26.9
2023-05-10T10:05:57.182Z,16.7
2023-05-10T10:10:00.914Z,14.1
2023-05-10T10:12:02.793Z,15
2023-05-10T10:18:11.505Z,15.7
2023-05-10T10:20:13.390Z,15
2023-05-10T10:22:15.226Z,27.2
2023-05-10T10:30:25.820Z,15.6
2023-05-10T10:35:32.020Z,14.1
2023-05-10T10:37:33.874Z,9.7
2023-05-10T10:39:35.701Z,14
2023-05-10T10:43:42.590Z,12.2
2023-05-10T10:45:44.436Z,10.7
2023-05-10T10:47:46.312Z,12.4
2023-05-10T10:49:48.164Z,10.1
2023-05-10T10:51:49.991Z,13.5
2023-05-10T10:53:51.838Z,11.1
2023-05-10T10:55:56.858Z,13.7
2023-05-10T10:57:58.690Z,11.6
2023-05-10T11:00:00.559Z,11.2
2023-05-10T11:02:02.391Z,7.8
2023-05-10T11:04:04.379Z,17.3
2023-05-10T11:06:06.130Z,8.8
2023-05-10T11:08:07.971Z,9.5
2023-05-10T11:10:14.596Z,9.1
2023-05-10T11:12:16.312Z,7.2
2023-05-10T11:14:18.180Z,6.8
2023-05-10T11:16:20.150Z,20.1
2023-05-10T11:18:21.937Z,11.3
2023-05-10T11:20:23.735Z,46.5
2023-05-10T11:22:25.596Z,14.7
2023-05-10T11:24:30.593Z,8.5
2023-05-10T11:26:32.414Z,10.5
2023-05-10T11:35:43.586Z,9.8
2023-05-10T11:49:58.426Z,13
2023-05-10T11:54:05.284Z,5.4
2023-05-10T11:56:07.106Z,6.6
2023-05-10T11:58:08.939Z,6.1
2023-05-10T12:00:10.790Z,7.4
2023-05-10T12:02:12.617Z,11.2
2023-05-10T12:04:14.602Z,9
2023-05-10T12:06:19.431Z,4.2
2023-05-10T12:08:21.278Z,6.9
2023-05-10T12:10:23.115Z,9.7
2023-05-10T12:12:24.943Z,13.1
2023-05-10T12:14:26.785Z,9.1
2023-05-10T12:16:28.637Z,3.5
2023-05-10T12:18:30.470Z,6
2023-05-10T12:20:35.403Z,8.7
2023-05-10T12:22:37.262Z,4.8
2023-05-10T12:24:39.127Z,5.3
2023-05-10T12:27:07.475Z,5.2
2023-05-10T12:31:11.163Z,10.3
2023-05-10T12:33:16.284Z,9
2023-05-10T12:35:17.975Z,7.3
2023-05-10T12:37:19.818Z,10.5
2023-05-10T12:39:21.660Z,9.4
2023-05-10T12:41:23.524Z,7.8
2023-05-10T12:43:25.353Z,6.6
2023-05-10T12:45:27.178Z,11.9
2023-05-10T12:47:32.186Z,12.6
2023-05-10T12:49:34.014Z,7.1
2023-05-10T12:53:37.723Z,9.4
2023-05-10T12:55:39.581Z,8.8
2023-05-10T12:59:43.217Z,10.5
2023-05-10T13:01:48.199Z,10.5
2023-05-10T13:03:50.049Z,9.5
2023-05-10T13:05:51.882Z,9.7
2023-05-10T13:07:53.712Z,9
2023-05-10T13:09:55.545Z,10.8
2023-05-10T13:11:57.382Z,7.8
2023-05-10T13:18:06.146Z,28.9
2023-05-10T13:20:07.876Z,15.2
2023-05-10T13:21:10.403Z,12.8
2023-05-10T13:29:20.919Z,10.2
2023-05-10T13:39:30.066Z,8.9
2023-05-10T13:47:40.577Z,9.1
2023-05-10T13:59:55.913Z,9.4
2023-05-10T14:01:56.576Z,13.7
2023-05-10T14:03:58.393Z,8
2023-05-10T14:06:00.179Z,9
2023-05-10T14:08:01.998Z,8.8
2023-05-10T14:10:03.840Z,15.6
2023-05-10T14:12:08.813Z,11.4
2023-05-10T14:14:10.649Z,8
2023-05-10T14:16:12.525Z,11.3
2023-05-10T14:17:14.961Z,10.2
2023-05-10T14:19:16.774Z,9.6
2023-05-10T14:21:18.598Z,11
2023-05-10T14:23:20.420Z,10.3
2023-05-10T14:25:25.409Z,11.9
2023-05-10T14:27:27.227Z,14.5
2023-05-10T14:31:30.890Z,11.8
2023-05-10T14:33:32.686Z,8.3
2023-05-10T14:35:34.500Z,9.9
2023-05-10T14:37:36.300Z,11.9
2023-05-10T14:43:44.902Z,13.3
2023-05-10T14:45:46.744Z,12
2023-05-10T14:49:50.352Z,9.6
2023-05-10T14:51:52.143Z,8.7
2023-05-10T14:53:57.112Z,14.6
2023-05-10T14:55:58.942Z,11.4
2023-05-10T15:02:04.370Z,10.3
2023-05-10T15:06:07.992Z,18.2
2023-05-10T15:08:12.969Z,14.3
2023-05-10T15:10:14.797Z,9.7
2023-05-10T15:12:16.607Z,10.7
2023-05-10T15:13:19.097Z,10.2
2023-05-10T15:15:20.923Z,10.6
2023-05-10T15:17:22.748Z,8.9
2023-05-10T15:19:24.573Z,8
2023-05-10T15:23:31.399Z,13
2023-05-10T15:25:33.238Z,9.9
2023-05-10T15:27:35.080Z,13
2023-05-10T15:29:36.917Z,11.7
2023-05-10T15:31:38.802Z,12.5
2023-05-10T15:33:40.586Z,10.6
2023-05-10T15:35:45.577Z,19.2
2023-05-10T15:37:47.432Z,9.7
2023-05-10T15:39:49.266Z,12.7
2023-05-10T15:41:51.118Z,17.5
2023-05-10T15:43:52.962Z,18.5
2023-05-10T15:50:01.712Z,12
2023-05-10T15:52:03.579Z,17.8
2023-05-10T15:58:09.183Z,12.2
2023-05-10T16:02:12.954Z,17.9
2023-05-10T16:08:21.643Z,14.8
2023-05-10T16:10:50.214Z,19.2
2023-05-10T16:12:52.069Z,15.3
2023-05-10T16:14:53.939Z,20.3
2023-05-10T16:16:59.025Z,22.8
2023-05-10T16:23:04.543Z,18.8
2023-05-10T16:25:06.409Z,20.3
2023-05-10T16:27:08.285Z,27.1
2023-05-10T16:29:10.159Z,17.9
2023-05-10T16:31:15.175Z,18.8
2023-05-10T16:33:17.018Z,20.7
2023-05-10T16:37:20.773Z,21
2023-05-10T16:39:22.618Z,21.5
2023-05-10T16:41:24.472Z,24.2
2023-05-10T16:43:26.358Z,21
2023-05-10T16:45:31.353Z,20.5
2023-05-10T16:47:33.264Z,25
2023-05-10T16:49:35.106Z,17.6
2023-05-10T16:51:36.972Z,18.9
2023-05-10T16:55:40.905Z,20.8
2023-05-10T16:57:42.561Z,31.2
2023-05-10T16:59:47.559Z,24.5
2023-05-10T17:01:51.014Z,20.5
2023-05-10T17:03:52.943Z,18.9
2023-05-10T17:04:55.290Z,19.4
2023-05-10T17:08:59.024Z,19.3
2023-05-10T17:11:00.874Z,20.5
2023-05-10T17:17:09.597Z,20.3
2023-05-10T17:19:11.530Z,16.9
2023-05-10T17:23:15.169Z,35
2023-05-10T17:25:17.373Z,33.7
2023-05-10T17:27:22.035Z,19.9
2023-05-10T17:29:23.876Z,15.4
2023-05-10T17:31:25.950Z,14.5
2023-05-10T17:33:27.596Z,18.1
2023-05-10T17:35:29.468Z,12.9
2023-05-10T17:37:31.322Z,22.3
2023-05-10T17:39:33.180Z,12.2
2023-05-10T17:41:38.195Z,11.9
2023-05-10T17:43:40.035Z,10.2
2023-05-10T17:47:43.762Z,15.8
2023-05-10T18:01:00.551Z,20.1
2023-05-10T18:05:04.370Z,18.4
2023-05-10T18:07:06.167Z,16.5
2023-05-10T18:09:11.189Z,15.3
2023-05-10T18:11:13.009Z,13.3
2023-05-10T18:13:14.880Z,13.6
2023-05-10T18:15:16.907Z,11.8
2023-05-10T18:17:18.629Z,14.4
2023-05-10T18:19:20.469Z,10.7
2023-05-10T18:21:22.338Z,14.8
2023-05-10T18:23:27.335Z,16
2023-05-10T18:25:29.261Z,10.9
2023-05-10T18:27:31.063Z,24.1
2023-05-10T18:29:32.942Z,15.5
2023-05-10T18:37:43.495Z,12.8
2023-05-10T18:43:49.113Z,14.3
2023-05-10T18:57:05.972Z,21.7
2023-05-10T18:59:07.854Z,17.7
2023-05-10T19:01:09.739Z,21.5
2023-05-10T19:03:11.678Z,24.2
2023-05-10T19:05:16.742Z,16
2023-05-10T19:07:18.463Z,13.9
2023-05-10T19:09:20.341Z,14.9
2023-05-10T19:11:22.166Z,20.5
2023-05-10T19:13:24.049Z,16.2
2023-05-10T19:17:28.442Z,22.3
2023-05-10T19:19:32.880Z,20.4
2023-05-10T19:29:42.192Z,21.8
2023-05-10T19:35:50.931Z,23.9
2023-05-10T19:39:54.725Z,27.2
2023-05-10T19:41:56.618Z,27.7
2023-05-10T19:46:00.374Z,21.2
2023-05-10T19:48:05.463Z,19.7
2023-05-10T19:50:07.199Z,18
2023-05-10T19:52:09.072Z,19.3
2023-05-10T19:54:37.630Z,20.5
2023-05-10T19:56:39.515Z,25.9
2023-05-10T19:58:41.371Z,37.1
2023-05-10T20:06:52.006Z,18.3
2023-05-10T20:08:53.866Z,65.2
2023-05-10T20:10:55.714Z,97.4
2023-05-10T20:12:57.609Z,150
2023-05-10T20:15:02.638Z,25.2
2023-05-10T20:17:04.507Z,21.1
2023-05-10T20:19:06.427Z,27.7
2023-05-10T20:21:08.222Z,18.5
2023-05-10T20:23:10.076Z,23.2
2023-05-10T20:25:11.967Z,20.5
2023-05-10T20:27:13.801Z,24.4
2023-05-10T20:29:18.861Z,21
2023-05-10T20:31:20.740Z,90.4
2023-05-10T20:33:22.592Z,24.3
2023-05-10T20:37:26.357Z,22.5
2023-05-10T20:45:37.703Z,17.8
2023-05-10T20:47:38.836Z,23.1
2023-05-10T20:48:41.304Z,17.1
2023-05-10T21:00:55.645Z,22.5
2023-05-10T21:04:59.495Z,17.6
2023-05-10T21:07:01.295Z,22.5
2023-05-10T21:09:03.136Z,21.3
2023-05-10T21:13:10.046Z,24.5
2023-05-10T21:15:11.889Z,17.8
2023-05-10T21:17:13.793Z,31.2
2023-05-10T21:19:15.664Z,18.4
2023-05-10T21:21:17.533Z,16.1
2023-05-10T21:23:19.397Z,16.6
2023-05-10T21:25:24.411Z,22.9
2023-05-10T21:27:26.248Z,17.8
2023-05-10T21:29:28.123Z,26
2023-05-10T21:31:30.048Z,18.5
2023-05-10T21:33:31.862Z,18
2023-05-10T21:35:33.759Z,19.5
2023-05-10T21:37:35.625Z,21.8
2023-05-10T21:39:40.610Z,23.7
2023-05-10T21:41:42.504Z,14.5
2023-05-10T21:43:44.370Z,14.6
2023-05-10T22:27:35.635Z,19.4
2023-05-10T22:29:37.509Z,18
2023-05-10T22:35:44.119Z,30.7
2023-05-10T22:39:47.906Z,21.9
2023-05-10T22:40:50.410Z,23.9
2023-05-10T22:46:56.097Z,17.2
2023-05-10T23:03:18.833Z,20.4
2023-05-10T23:05:20.693Z,19.6
2023-05-10T23:07:22.594Z,17.9
2023-05-10T23:09:24.454Z,15.4
2023-05-10T23:11:26.325Z,17.9
2023-05-10T23:13:28.237Z,18
2023-05-10T23:15:30.107Z,18.5
2023-05-10T23:17:35.127Z,16.5
2023-05-10T23:19:37.003Z,21.7
2023-05-10T23:23:40.814Z,18.5
2023-05-10T23:25:42.630Z,21.8
2023-05-10T23:27:44.483Z,19.9
2023-05-10T23:29:46.405Z,19.3
2023-05-10T23:31:51.492Z,25.5
2023-05-10T23:35:55.209Z,25.4
2023-05-10T23:38:23.721Z,20.8
2023-05-10T23:40:25.636Z,21.8
2023-05-10T23:44:32.529Z,19.2
2023-05-10T23:48:36.405Z,23.4
2023-05-10T23:52:40.058Z,22.8
2023-05-10T23:58:48.782Z,24.8
